Time;durP1;ratioP1;P1;durP2;ratioP2;P2;SDS_P1;SDS_P2;PMS_P1;PMS_P2;Temp;Humidity;BMP_temperature;BMP_pressure;BME280_temperature;BME280_humidity;BME280_pressure;Samples;Min_cycle;Max_cycle;Signal;HPM_P1;HPM_P2
2024/04/02 00:01:27;;;;;;;1.13;0.60;;;8.90;99.90;;;;;;5006923;28;20034;-44
2024/04/02 00:03:53;;;;;;;1.05;0.20;;;8.90;99.90;;;;;;5011058;28;20025;-42
2024/04/02 00:06:18;;;;;;;1.38;0.20;;;8.90;99.90;;;;;;5013114;28;20049;-44
2024/04/02 00:08:44;;;;;;;0.70;0.10;;;8.90;99.90;;;;;;5006397;28;20018;-43
2024/04/02 00:11:09;;;;;;;0.88;0.20;;;8.80;99.90;;;;;;5010528;28;20021;-39
2024/04/02 00:13:35;;;;;;;1.02;0.10;;;8.80;99.90;;;;;;5004575;28;20030;-41
2024/04/02 00:16:02;;;;;;;1.17;0.20;;;8.80;99.90;;;;;;5012759;28;20033;-40
2024/04/02 00:18:28;;;;;;;2.60;0.20;;;8.80;99.90;;;;;;4998481;28;20405;-40
2024/04/02 00:20:59;;;;;;;2.38;0.20;;;8.80;99.90;;;;;;5004676;28;20037;-43
2024/04/02 00:23:25;;;;;;;1.05;0.20;;;8.80;99.90;;;;;;5012094;28;20484;-41
2024/04/02 00:26:04;;;;;;;1.17;0.10;;;8.80;99.90;;;;;;5007593;28;20040;-43
2024/04/02 00:28:30;;;;;;;4.32;0.20;;;8.80;99.90;;;;;;5000612;28;20112;-44
2024/04/02 00:31:02;;;;;;;4.90;0.13;;;8.80;99.90;;;;;;5010335;28;20528;-43
2024/04/02 00:33:32;;;;;;;0.55;0.10;;;8.90;99.90;;;;;;5012127;28;20021;-46
2024/04/02 00:36:05;;;;;;;0.75;0.13;;;9.00;99.90;;;;;;5007527;28;20045;-45
2024/04/02 00:38:31;;;;;;;0.45;0.10;;;9.00;99.90;;;;;;5008287;28;20040;-45
2024/04/02 00:40:57;;;;;;;1.40;0.10;;;9.10;99.90;;;;;;5001074;28;20045;-49
2024/04/02 00:43:23;;;;;;;1.25;0.20;;;9.10;99.90;;;;;;5010109;28;20099;-42
2024/04/02 00:45:49;;;;;;;0.95;0.20;;;9.20;99.90;;;;;;5007019;28;20086;-44
2024/04/02 00:48:16;;;;;;;0.70;0.10;;;9.20;99.90;;;;;;4998040;28;20177;-41
2024/04/02 00:50:42;;;;;;;0.47;0.10;;;9.30;99.90;;;;;;5010566;28;20125;-43
2024/04/02 00:53:08;;;;;;;1.15;0.10;;;9.30;99.90;;;;;;5005165;28;20210;-40
2024/04/02 00:55:37;;;;;;;1.80;0.43;;;9.30;99.90;;;;;;5006086;28;20029;-40
2024/04/02 00:58:06;;;;;;;2.90;0.20;;;9.30;99.90;;;;;;5007224;28;20025;-43
2024/04/02 01:00:35;;;;;;;1.80;0.20;;;9.30;99.90;;;;;;4998069;28;20046;-44
2024/04/02 01:03:02;;;;;;;1.50;0.30;;;9.30;99.90;;;;;;5006062;28;20029;-41
2024/04/02 01:05:27;;;;;;;1.38;0.20;;;9.40;99.90;;;;;;5008281;28;20056;-43
2024/04/02 01:07:53;;;;;;;2.15;0.25;;;9.30;99.90;;;;;;5005788;28;20509;-42
2024/04/02 01:10:19;;;;;;;0.45;0.20;;;9.30;99.90;;;;;;5009581;28;20164;-40
2024/04/02 01:12:44;;;;;;;0.30;0.10;;;9.30;99.90;;;;;;5063267;22;20058;-48
2024/04/02 01:15:10;;;;;;;2.67;0.25;;;9.30;99.90;;;;;;4994780;28;20054;-46
2024/04/02 01:17:35;;;;;;;0.52;0.17;;;9.30;99.90;;;;;;4986179;28;20034;-48
2024/04/02 01:20:01;;;;;;;1.30;0.20;;;9.30;99.90;;;;;;4987652;28;20404;-47
2024/04/02 01:22:27;;;;;;;0.32;0.10;;;9.20;99.90;;;;;;4988917;28;20019;-48
2024/04/02 01:24:58;;;;;;;2.17;0.15;;;9.20;99.90;;;;;;4989982;28;20031;-49
2024/04/02 01:27:26;;;;;;;3.15;0.88;;;9.20;99.90;;;;;;4986911;28;20026;-49
2024/04/02 01:29:51;;;;;;;3.05;0.20;;;9.20;99.90;;;;;;4987474;28;20042;-49
2024/04/02 01:32:17;;;;;;;1.30;0.20;;;9.20;99.90;;;;;;4993208;28;20100;-49
2024/04/02 01:34:42;;;;;;;3.03;0.20;;;9.20;99.90;;;;;;4989700;28;20507;-52
2024/04/02 01:37:08;;;;;;;1.63;0.20;;;9.10;99.90;;;;;;4986969;28;20121;-51
2024/04/02 01:39:33;;;;;;;1.30;0.20;;;9.20;99.90;;;;;;4991893;28;20120;-51
2024/04/02 01:41:59;;;;;;;0.98;0.20;;;9.20;99.90;;;;;;4991083;28;20038;-46
2024/04/02 01:44:24;;;;;;;1.17;0.20;;;9.30;99.90;;;;;;4990698;28;20025;-50
2024/04/02 01:46:50;;;;;;;3.42;0.20;;;9.30;99.90;;;;;;4985850;28;20032;-44
2024/04/02 01:49:15;;;;;;;1.60;0.10;;;9.30;99.90;;;;;;4988484;28;20058;-44
2024/04/02 01:51:42;;;;;;;1.95;0.20;;;9.40;99.90;;;;;;4990443;28;20037;-44
2024/04/02 01:54:07;;;;;;;3.90;0.20;;;9.40;99.90;;;;;;4985039;28;20056;-50
2024/04/02 01:56:33;;;;;;;2.00;0.20;;;9.30;99.90;;;;;;4992039;28;20037;-47
2024/04/02 01:58:58;;;;;;;0.85;0.10;;;9.30;99.90;;;;;;4989945;28;20479;-48
2024/04/02 02:01:24;;;;;;;4.47;0.40;;;9.30;99.90;;;;;;5002998;28;20033;-48
2024/04/02 02:03:49;;;;;;;1.70;0.20;;;9.30;99.90;;;;;;4988248;28;20034;-46
2024/04/02 02:06:15;;;;;;;0.80;0.10;;;9.30;99.90;;;;;;4985933;28;20031;-45
2024/04/02 02:08:40;;;;;;;2.10;0.30;;;9.30;99.90;;;;;;4987370;28;20022;-50
2024/04/02 02:11:06;;;;;;;1.52;0.20;;;9.40;99.90;;;;;;4997036;28;20033;-46
2024/04/02 02:13:38;;;;;;;0.50;0.10;;;9.30;99.90;;;;;;4984866;28;20030;-50
2024/04/02 02:16:04;;;;;;;1.65;0.20;;;9.40;99.90;;;;;;4995960;28;20041;-50
2024/04/02 02:18:31;;;;;;;1.00;0.20;;;9.40;99.90;;;;;;4991685;28;20069;-44
2024/04/02 02:20:57;;;;;;;2.45;0.20;;;9.30;99.90;;;;;;4995384;28;20030;-47
2024/04/02 02:23:24;;;;;;;5.57;0.98;;;9.30;99.90;;;;;;4985908;28;20052;-46
2024/04/02 02:25:50;;;;;;;2.10;0.30;;;9.30;99.90;;;;;;4984584;28;20088;-46
2024/04/02 02:28:15;;;;;;;3.70;0.20;;;9.40;99.90;;;;;;4985070;28;20026;-44
2024/04/02 02:30:41;;;;;;;0.80;0.20;;;9.40;99.90;;;;;;4986153;28;20461;-45
2024/04/02 02:33:07;;;;;;;2.25;0.20;;;9.30;99.90;;;;;;4996898;28;20018;-48
2024/04/02 02:35:32;;;;;;;1.33;0.20;;;9.30;99.90;;;;;;4995814;28;20473;-44
2024/04/02 02:37:58;;;;;;;0.88;0.20;;;9.30;99.90;;;;;;4990348;28;20040;-51
2024/04/02 02:40:23;;;;;;;3.75;0.90;;;9.20;99.90;;;;;;4998749;28;20860;-52
2024/04/02 02:42:49;;;;;;;1.90;0.20;;;9.20;99.90;;;;;;4987996;28;20022;-49
2024/04/02 02:45:15;;;;;;;2.67;0.20;;;9.20;99.90;;;;;;4993838;28;20411;-48
2024/04/02 02:47:40;;;;;;;1.77;0.20;;;9.20;99.90;;;;;;4998240;28;20033;-48
2024/04/02 02:50:06;;;;;;;1.63;0.20;;;9.30;99.90;;;;;;4984097;28;20026;-49
2024/04/02 02:52:32;;;;;;;2.42;0.25;;;9.30;99.90;;;;;;4981959;28;20022;-46
2024/04/02 02:54:57;;;;;;;2.17;0.40;;;9.30;99.90;;;;;;4992236;28;20040;-50
2024/04/02 02:57:23;;;;;;;1.45;0.25;;;9.20;99.90;;;;;;5002993;28;20041;-46
2024/04/02 02:59:48;;;;;;;3.15;0.20;;;9.10;99.90;;;;;;4986264;28;20045;-49
2024/04/02 03:02:14;;;;;;;2.10;0.25;;;9.10;99.90;;;;;;4998360;28;20038;-50
2024/04/02 03:04:40;;;;;;;1.38;0.20;;;9.10;99.90;;;;;;4985667;28;20429;-45
2024/04/02 03:07:06;;;;;;;1.58;0.20;;;9.10;99.90;;;;;;4984445;28;20092;-48
2024/04/02 03:09:34;;;;;;;1.85;0.20;;;9.10;99.90;;;;;;4978665;28;20022;-47
2024/04/02 03:12:00;;;;;;;4.35;0.20;;;9.10;99.90;;;;;;4990342;28;20054;-44
2024/04/02 03:14:26;;;;;;;0.80;0.10;;;9.10;99.90;;;;;;4988137;28;20022;-49
2024/04/02 03:16:52;;;;;;;0.98;0.20;;;9.10;99.90;;;;;;5000611;28;20032;-51
2024/04/02 03:19:18;;;;;;;3.45;0.15;;;9.00;99.90;;;;;;4987443;28;20122;-48
2024/04/02 03:21:43;;;;;;;0.85;0.20;;;9.00;99.90;;;;;;4991184;28;20101;-44
2024/04/02 03:24:09;;;;;;;1.77;0.20;;;9.00;99.90;;;;;;4991384;28;20022;-49
2024/04/02 03:26:34;;;;;;;1.40;0.20;;;9.00;99.90;;;;;;4989441;28;20029;-43
2024/04/02 03:29:00;;;;;;;0.88;0.20;;;9.00;99.90;;;;;;4998277;28;20053;-44
2024/04/02 03:31:25;;;;;;;2.85;0.20;;;9.00;99.90;;;;;;4996436;28;20092;-45
2024/04/02 03:33:51;;;;;;;1.65;0.20;;;9.00;99.90;;;;;;4982573;28;20038;-45
2024/04/02 03:36:16;;;;;;;5.85;0.30;;;9.00;99.90;;;;;;4993896;28;20031;-47
2024/04/02 03:38:42;;;;;;;3.75;0.20;;;9.00;99.90;;;;;;4987577;28;20069;-49
2024/04/02 03:41:08;;;;;;;2.15;0.20;;;9.00;99.90;;;;;;4993948;28;20268;-46
2024/04/02 03:43:34;;;;;;;1.35;0.10;;;9.00;99.90;;;;;;4991007;28;20099;-46
2024/04/02 03:46:04;;;;;;;5.38;0.20;;;9.00;99.90;;;;;;4996810;28;20037;-44
2024/04/02 03:48:30;;;;;;;3.15;0.20;;;9.00;99.90;;;;;;5002124;28;20113;-44
2024/04/02 03:50:56;;;;;;;1.02;0.20;;;9.00;99.90;;;;;;4995985;28;20103;-45
2024/04/02 03:53:22;;;;;;;0.70;0.20;;;9.00;99.90;;;;;;4990798;28;20030;-46
2024/04/02 03:55:47;;;;;;;2.63;0.47;;;9.00;99.90;;;;;;4999395;28;20034;-43
2024/04/02 03:58:13;;;;;;;0.88;0.13;;;9.00;99.90;;;;;;4997438;28;20523;-46
2024/04/02 04:00:42;;;;;;;3.30;0.20;;;8.90;99.90;;;;;;4991184;28;20488;-45
2024/04/02 04:03:08;;;;;;;3.42;0.52;;;8.90;99.90;;;;;;4988666;28;20026;-48
2024/04/02 04:05:33;;;;;;;2.88;0.30;;;8.90;99.90;;;;;;4991536;28;20095;-47
2024/04/02 04:07:59;;;;;;;2.20;0.50;;;8.90;99.90;;;;;;4982745;28;20113;-50
2024/04/02 04:10:24;;;;;;;2.40;0.20;;;8.90;99.90;;;;;;4983654;28;20033;-45
2024/04/02 04:12:50;;;;;;;5.28;0.30;;;8.90;99.90;;;;;;4991726;28;20148;-45
2024/04/02 04:15:15;;;;;;;3.35;0.30;;;8.90;99.90;;;;;;4987869;28;20031;-48
2024/04/02 04:17:41;;;;;;;1.80;0.10;;;8.90;99.90;;;;;;5000288;28;20030;-44
2024/04/02 04:20:07;;;;;;;1.08;0.20;;;8.90;99.90;;;;;;4999627;28;20030;-45
2024/04/02 04:22:33;;;;;;;4.50;0.20;;;9.00;99.90;;;;;;4997782;28;20019;-51
2024/04/02 04:25:01;;;;;;;1.25;0.20;;;9.00;99.90;;;;;;4982618;28;20060;-49
2024/04/02 04:27:31;;;;;;;5.97;0.20;;;9.10;99.90;;;;;;4983866;28;20018;-49
2024/04/02 04:29:57;;;;;;;1.42;0.20;;;9.10;99.90;;;;;;4993789;28;20057;-44
2024/04/02 04:32:23;;;;;;;2.20;0.60;;;9.10;99.90;;;;;;4992864;28;20092;-46
2024/04/02 04:34:49;;;;;;;3.10;0.43;;;9.10;99.90;;;;;;4987831;28;20497;-47
2024/04/02 04:37:14;;;;;;;2.10;0.20;;;9.10;99.90;;;;;;4996689;28;20544;-45
2024/04/02 04:39:40;;;;;;;2.60;0.20;;;9.20;99.90;;;;;;4990376;28;20574;-50
2024/04/02 04:42:05;;;;;;;2.17;0.82;;;9.20;99.90;;;;;;4986247;28;20030;-43
2024/04/02 04:44:31;;;;;;;4.63;0.20;;;9.20;99.90;;;;;;4983795;28;20034;-50
2024/04/02 04:46:57;;;;;;;3.35;0.30;;;9.20;99.90;;;;;;4989351;28;20033;-45
2024/04/02 04:49:22;;;;;;;4.55;0.30;;;9.20;99.90;;;;;;4991254;28;20023;-47
2024/04/02 04:51:48;;;;;;;1.60;0.20;;;9.20;99.90;;;;;;4992647;28;20031;-48
2024/04/02 04:54:13;;;;;;;8.88;0.30;;;9.20;99.90;;;;;;4985926;28;20026;-45
2024/04/02 04:56:39;;;;;;;1.13;0.20;;;9.30;99.90;;;;;;4988115;28;20828;-48
2024/04/02 04:59:04;;;;;;;2.75;0.60;;;9.30;99.90;;;;;;4990440;28;20034;-47
2024/04/02 05:01:30;;;;;;;2.85;0.30;;;9.30;99.90;;;;;;4986186;28;20109;-47
2024/04/02 05:03:55;;;;;;;5.07;0.20;;;9.20;99.90;;;;;;4985254;28;20042;-46
2024/04/02 05:06:21;;;;;;;4.30;0.20;;;9.20;99.90;;;;;;4986387;28;20105;-50
2024/04/02 05:08:47;;;;;;;2.25;0.20;;;9.20;99.90;;;;;;4989870;28;20022;-47
2024/04/02 05:11:12;;;;;;;1.45;0.20;;;9.10;99.90;;;;;;4991978;28;20021;-46
2024/04/02 05:13:40;;;;;;;2.85;0.20;;;9.20;99.90;;;;;;4991183;28;20311;-43
2024/04/02 05:16:06;;;;;;;3.60;0.77;;;9.20;99.90;;;;;;4989581;28;20468;-48
2024/04/02 05:18:32;;;;;;;1.95;0.25;;;9.20;99.90;;;;;;4987065;28;20022;-46
2024/04/02 05:20:58;;;;;;;0.98;0.15;;;9.20;99.90;;;;;;4987965;28;20109;-46
2024/04/02 05:23:26;;;;;;;2.97;0.50;;;9.20;99.90;;;;;;4985398;28;20027;-50
2024/04/02 05:26:00;;;;;;;1.50;0.20;;;9.10;99.90;;;;;;4991534;28;20034;-47
2024/04/02 05:28:26;;;;;;;3.83;0.30;;;9.20;99.90;;;;;;4991191;28;20099;-47
2024/04/02 05:30:53;;;;;;;1.85;0.20;;;9.20;99.90;;;;;;4987116;28;20087;-47
2024/04/02 05:33:19;;;;;;;4.60;0.30;;;9.20;99.90;;;;;;4985016;28;20376;-50
2024/04/02 05:35:45;;;;;;;4.93;0.20;;;9.20;99.90;;;;;;4988816;28;20587;-48
2024/04/02 05:38:11;;;;;;;1.40;0.30;;;9.30;99.90;;;;;;4991676;28;20062;-44
2024/04/02 05:40:38;;;;;;;2.70;0.40;;;9.20;99.90;;;;;;4982245;28;20077;-44
2024/04/02 05:43:04;;;;;;;6.32;0.30;;;9.30;99.90;;;;;;4987312;28;20038;-46
2024/04/02 05:45:29;;;;;;;5.10;0.70;;;9.30;99.90;;;;;;4985202;28;20033;-45
2024/04/02 05:47:55;;;;;;;2.08;0.20;;;9.30;99.90;;;;;;4999432;28;20022;-49
2024/04/02 05:50:21;;;;;;;2.67;0.20;;;9.30;99.90;;;;;;4990371;28;20022;-47
2024/04/02 05:52:47;;;;;;;3.83;0.45;;;9.40;99.90;;;;;;4980982;28;20030;-48
2024/04/02 05:55:12;;;;;;;2.17;0.20;;;9.30;99.90;;;;;;4990139;28;20033;-47
2024/04/02 05:57:39;;;;;;;3.22;0.20;;;9.40;99.90;;;;;;4990599;28;20528;-48
2024/04/02 06:00:05;;;;;;;1.30;0.20;;;9.40;99.90;;;;;;4978831;28;20039;-44
2024/04/02 06:02:32;;;;;;;6.00;0.20;;;9.30;99.90;;;;;;4983092;28;20117;-48
2024/04/02 06:04:58;;;;;;;5.45;0.45;;;9.30;99.90;;;;;;4997328;28;20030;-49
2024/04/02 06:07:23;;;;;;;4.80;0.25;;;9.30;99.90;;;;;;4985733;28;20010;-46
2024/04/02 06:09:49;;;;;;;3.17;0.30;;;9.40;99.90;;;;;;4985615;28;20489;-47
2024/04/02 06:12:15;;;;;;;4.93;0.20;;;9.30;99.90;;;;;;4994790;28;20058;-45
2024/04/02 06:14:40;;;;;;;1.23;0.20;;;9.40;99.90;;;;;;4996105;28;20026;-47
2024/04/02 06:17:06;;;;;;;3.85;0.30;;;9.40;99.90;;;;;;4989254;28;20102;-49
2024/04/02 06:19:32;;;;;;;3.50;0.20;;;9.50;99.90;;;;;;4983467;28;20473;-54
2024/04/02 06:21:58;;;;;;;3.28;0.20;;;9.60;99.90;;;;;;4988459;28;20705;-45
2024/04/02 06:24:24;;;;;;;5.95;0.82;;;9.60;99.90;;;;;;4986829;28;20053;-46
2024/04/02 06:26:51;;;;;;;5.35;0.30;;;9.50;99.90;;;;;;4988152;28;20025;-53
2024/04/02 06:29:16;;;;;;;5.28;0.40;;;9.60;99.90;;;;;;4991278;28;20046;-47
2024/04/02 06:31:42;;;;;;;7.45;0.40;;;9.60;99.90;;;;;;4996713;28;20026;-52
2024/04/02 06:34:07;;;;;;;2.90;0.30;;;9.60;99.90;;;;;;4988686;28;20103;-50
2024/04/02 06:36:33;;;;;;;8.57;0.75;;;9.60;99.90;;;;;;4987695;28;20082;-45
2024/04/02 06:38:58;;;;;;;7.20;0.70;;;9.70;99.90;;;;;;4986034;28;20129;-49
2024/04/02 06:41:24;;;;;;;4.13;0.50;;;9.70;99.90;;;;;;4987290;28;20123;-50
2024/04/02 06:43:51;;;;;;;6.90;0.40;;;9.70;99.90;;;;;;4985213;28;20029;-51
2024/04/02 06:46:17;;;;;;;8.30;0.30;;;9.80;99.90;;;;;;4991242;28;20882;-46
2024/04/02 06:48:43;;;;;;;7.28;0.30;;;9.80;99.90;;;;;;4990296;28;20061;-49
2024/04/02 06:51:09;;;;;;;4.43;0.47;;;9.80;99.90;;;;;;4987360;28;20027;-52
2024/04/02 06:53:34;;;;;;;3.33;0.30;;;9.90;99.90;;;;;;4984407;28;20034;-49
2024/04/02 06:56:00;;;;;;;6.35;0.40;;;9.90;99.90;;;;;;4989875;28;20425;-51
2024/04/02 06:58:26;;;;;;;8.20;0.50;;;9.90;99.90;;;;;;4985042;28;20053;-46
2024/04/02 07:00:52;;;;;;;4.00;0.45;;;10.00;99.90;;;;;;4991509;28;20117;-47
2024/04/02 07:03:19;;;;;;;5.65;0.40;;;10.00;99.90;;;;;;4986700;28;20181;-47
2024/04/02 07:05:46;;;;;;;7.28;0.40;;;10.10;99.90;;;;;;4990974;28;20105;-49
2024/04/02 07:08:13;;;;;;;6.15;1.27;;;10.10;99.90;;;;;;4995663;28;20080;-49
2024/04/02 07:10:40;;;;;;;10.05;0.35;;;10.10;99.90;;;;;;5002971;28;20032;-48
2024/04/02 07:13:06;;;;;;;4.88;0.40;;;10.10;99.90;;;;;;4983225;28;20041;-50
2024/04/02 07:15:31;;;;;;;5.28;0.30;;;10.10;99.90;;;;;;4984329;28;20524;-47
2024/04/02 07:17:57;;;;;;;5.80;0.32;;;10.10;99.90;;;;;;4990428;28;20022;-49
2024/04/02 07:20:23;;;;;;;7.38;1.05;;;10.20;99.90;;;;;;4981691;28;20030;-47
2024/04/02 07:22:49;;;;;;;10.52;0.25;;;10.30;99.90;;;;;;4983975;28;20035;-52
2024/04/02 07:25:14;;;;;;;10.23;0.85;;;10.30;99.90;;;;;;4985394;28;20030;-50
2024/04/02 07:27:40;;;;;;;9.13;0.60;;;10.40;99.90;;;;;;4984196;28;20022;-46
2024/04/02 07:30:07;;;;;;;7.97;0.63;;;10.40;99.90;;;;;;4993712;28;20026;-46
2024/04/02 07:32:33;;;;;;;7.22;0.45;;;10.40;99.90;;;;;;4987512;28;20041;-51
2024/04/02 07:34:59;;;;;;;7.40;0.88;;;10.40;99.90;;;;;;4980612;28;20031;-48
2024/04/02 07:37:26;;;;;;;10.90;0.45;;;10.40;99.90;;;;;;4993099;28;20027;-51
2024/04/02 07:39:52;;;;;;;3.50;0.30;;;10.40;99.90;;;;;;4988554;28;20043;-48
2024/04/02 07:42:18;;;;;;;8.95;1.38;;;10.50;99.90;;;;;;4979903;28;20042;-50
2024/04/02 07:44:44;;;;;;;6.55;0.40;;;10.50;99.90;;;;;;4982452;28;20517;-52
2024/04/02 07:47:09;;;;;;;10.82;0.85;;;10.50;99.90;;;;;;4986516;28;20117;-52
2024/04/02 07:49:35;;;;;;;14.30;1.50;;;10.50;99.90;;;;;;4984299;28;20050;-51
2024/04/02 07:52:00;;;;;;;5.45;0.35;;;10.60;99.90;;;;;;4986942;28;20033;-48
2024/04/02 07:54:26;;;;;;;4.43;0.28;;;10.60;99.90;;;;;;4987679;28;20034;-48
2024/04/02 07:56:53;;;;;;;5.55;0.50;;;10.50;99.90;;;;;;4985068;28;20441;-50
2024/04/02 07:59:20;;;;;;;10.98;0.32;;;10.60;99.90;;;;;;4984001;28;20038;-51
2024/04/02 08:01:45;;;;;;;3.55;0.40;;;10.60;99.90;;;;;;4982968;28;20439;-46
2024/04/02 08:04:11;;;;;;;6.93;0.40;;;10.60;99.90;;;;;;4987213;28;20026;-51
2024/04/02 08:06:36;;;;;;;3.95;0.30;;;10.60;99.90;;;;;;4990873;28;20382;-50
2024/04/02 08:09:02;;;;;;;6.88;0.50;;;10.60;99.90;;;;;;4991859;28;20114;-49
2024/04/02 08:11:28;;;;;;;8.70;0.57;;;10.60;99.90;;;;;;4992316;28;20077;-50
2024/04/02 08:13:53;;;;;;;4.28;0.45;;;10.60;99.90;;;;;;4999661;28;20687;-50
2024/04/02 08:16:19;;;;;;;7.30;0.95;;;10.70;99.90;;;;;;4986895;28;20073;-49
2024/04/02 08:18:45;;;;;;;6.45;1.08;;;10.70;99.90;;;;;;4981049;28;20030;-46
2024/04/02 08:21:11;;;;;;;7.00;0.30;;;10.70;99.90;;;;;;4993943;28;20045;-54
2024/04/02 08:23:36;;;;;;;9.82;0.50;;;10.70;99.90;;;;;;4998001;28;20022;-51
2024/04/02 08:26:02;;;;;;;11.80;0.47;;;10.70;99.90;;;;;;4987124;28;20516;-49
2024/04/02 08:28:28;;;;;;;7.18;0.63;;;10.70;99.90;;;;;;5000248;28;20034;-53
2024/04/02 08:30:54;;;;;;;5.68;0.30;;;10.70;99.90;;;;;;4986989;28;20031;-51
2024/04/02 08:33:20;;;;;;;8.30;0.30;;;10.70;99.90;;;;;;4989034;28;20037;-52
2024/04/02 08:35:49;;;;;;;7.97;0.40;;;10.80;99.90;;;;;;4995108;28;20023;-51
2024/04/02 08:38:15;;;;;;;3.85;0.30;;;10.80;99.90;;;;;;4986966;28;20030;-52
2024/04/02 08:40:40;;;;;;;3.40;0.30;;;10.80;99.90;;;;;;4982329;28;20042;-49
2024/04/02 08:43:08;;;;;;;11.52;0.40;;;10.90;99.90;;;;;;4981414;28;20117;-51
2024/04/02 08:45:37;;;;;;;6.63;1.15;;;10.90;99.90;;;;;;4989357;28;20029;-53
2024/04/02 08:48:03;;;;;;;9.52;0.20;;;10.90;99.90;;;;;;4986970;28;20031;-49
2024/04/02 08:50:29;;;;;;;7.47;0.60;;;11.00;99.90;;;;;;4985242;28;20045;-48
2024/04/02 08:52:54;;;;;;;9.00;0.98;;;11.10;99.90;;;;;;4992878;28;20029;-47
2024/04/02 08:55:20;;;;;;;3.88;0.28;;;11.20;99.90;;;;;;4981342;28;20084;-50
2024/04/02 08:57:51;;;;;;;6.35;0.40;;;11.20;99.90;;;;;;4986681;28;20066;-51
2024/04/02 09:00:17;;;;;;;4.30;0.30;;;11.30;99.90;;;;;;4982893;28;20572;-51
2024/04/02 09:02:46;;;;;;;6.53;0.30;;;11.30;99.90;;;;;;4985392;28;20465;-47
2024/04/02 09:05:12;;;;;;;6.38;0.30;;;11.40;99.90;;;;;;4985627;28;20034;-52
2024/04/02 09:07:37;;;;;;;8.40;0.68;;;11.30;99.90;;;;;;4991833;28;20354;-50
2024/04/02 09:10:03;;;;;;;7.55;0.40;;;11.50;99.90;;;;;;4986935;28;20049;-51
2024/04/02 09:12:29;;;;;;;6.63;0.30;;;11.50;99.90;;;;;;4984589;28;20097;-47
2024/04/02 09:14:54;;;;;;;5.75;0.40;;;11.40;99.90;;;;;;4980010;28;20396;-48
2024/04/02 09:17:20;;;;;;;2.40;0.20;;;11.30;99.90;;;;;;4987593;28;20026;-48
2024/04/02 09:19:45;;;;;;;6.65;0.30;;;11.30;99.90;;;;;;4984494;28;20034;-53
2024/04/02 09:22:11;;;;;;;6.32;0.30;;;11.40;99.90;;;;;;4983097;28;20032;-47
2024/04/02 09:24:37;;;;;;;4.47;0.30;;;11.50;99.90;;;;;;4989145;28;20027;-51
2024/04/02 09:27:02;;;;;;;7.82;1.10;;;11.60;99.90;;;;;;4985650;28;20033;-50
2024/04/02 09:29:28;;;;;;;5.53;0.30;;;11.50;99.90;;;;;;4988502;28;20030;-47
2024/04/02 09:31:53;;;;;;;8.35;0.60;;;11.60;99.90;;;;;;4979484;28;20026;-47
2024/04/02 09:34:21;;;;;;;5.10;0.32;;;11.60;99.90;;;;;;4989378;28;20027;-55
2024/04/02 09:36:48;;;;;;;5.88;0.20;;;11.70;99.90;;;;;;4986331;28;20629;-49
2024/04/02 09:39:15;;;;;;;5.20;0.28;;;11.60;99.90;;;;;;4978640;28;20087;-47
2024/04/02 09:41:45;;;;;;;4.25;0.35;;;11.60;99.90;;;;;;4989657;28;20084;-51
2024/04/02 09:44:19;;;;;;;4.00;0.20;;;11.60;99.90;;;;;;4996669;28;20113;-47
2024/04/02 09:46:45;;;;;;;2.78;0.30;;;11.50;99.90;;;;;;4979401;28;20035;-47
2024/04/02 09:49:11;;;;;;;4.68;0.60;;;11.50;99.90;;;;;;4984331;28;20026;-49
2024/04/02 09:51:39;;;;;;;3.47;0.22;;;11.50;99.90;;;;;;4985871;28;20036;-45
2024/04/02 09:54:06;;;;;;;4.93;0.20;;;11.40;99.90;;;;;;4981781;28;20034;-45
2024/04/02 09:56:33;;;;;;;5.65;0.40;;;11.40;99.90;;;;;;4986574;28;20112;-49
2024/04/02 09:59:00;;;;;;;1.58;0.30;;;11.20;99.90;;;;;;4979334;28;20042;-51
2024/04/02 10:01:28;;;;;;;4.32;0.40;;;11.10;99.90;;;;;;4989314;28;20030;-47
2024/04/02 10:03:57;;;;;;;2.85;0.30;;;11.00;99.90;;;;;;4984697;28;20031;-49
2024/04/02 10:06:26;;;;;;;11.65;0.40;;;10.90;99.90;;;;;;4980916;28;20146;-53
2024/04/02 10:08:59;;;;;;;3.70;0.20;;;10.80;99.90;;;;;;4989635;28;20034;-49
2024/04/02 10:11:44;;;;;;;4.93;0.38;;;10.70;99.90;;;;;;4980926;28;20062;-55
2024/04/02 10:14:14;;;;;;;4.53;0.50;;;10.80;99.90;;;;;;4985611;28;20262;-48
2024/04/02 10:16:42;;;;;;;7.00;0.68;;;10.90;99.90;;;;;;4981406;28;20033;-52
2024/04/02 10:19:12;;;;;;;5.75;0.60;;;11.00;99.90;;;;;;4988283;28;20023;-49
2024/04/02 10:21:38;;;;;;;2.83;0.40;;;11.00;99.90;;;;;;4981332;28;20045;-49
2024/04/02 10:24:04;;;;;;;5.78;1.30;;;10.80;99.90;;;;;;4985347;28;20557;-48
2024/04/02 10:26:31;;;;;;;5.45;0.30;;;10.70;99.90;;;;;;4986906;28;20025;-50
2024/04/02 10:28:57;;;;;;;6.10;0.38;;;10.60;99.90;;;;;;4984796;28;20517;-51
2024/04/02 10:31:34;;;;;;;5.57;0.70;;;10.50;99.90;;;;;;4995130;28;20049;-49
2024/04/02 10:33:59;;;;;;;4.00;0.30;;;10.40;99.90;;;;;;4982133;28;20085;-47
2024/04/02 10:36:25;;;;;;;4.80;0.30;;;10.40;99.90;;;;;;4988539;28;20026;-49
2024/04/02 10:38:50;;;;;;;5.07;0.38;;;10.30;99.90;;;;;;4989255;28;20384;-46
2024/04/02 10:41:16;;;;;;;7.05;0.50;;;10.20;99.90;;;;;;5001438;28;20045;-48
2024/04/02 10:43:45;;;;;;;5.25;0.40;;;10.20;99.90;;;;;;4983900;28;20026;-48
2024/04/02 10:46:11;;;;;;;3.40;0.20;;;10.20;99.90;;;;;;4983937;28;20034;-46
2024/04/02 10:48:37;;;;;;;3.42;0.20;;;10.10;99.90;;;;;;4989840;28;20029;-47
2024/04/02 10:51:03;;;;;;;1.77;0.15;;;10.00;99.90;;;;;;4985085;28;20027;-50
2024/04/02 10:53:28;;;;;;;2.78;0.30;;;10.10;99.90;;;;;;4985395;28;20054;-52
2024/04/02 10:55:54;;;;;;;6.53;0.20;;;10.00;99.90;;;;;;4988771;28;20145;-49
2024/04/02 10:58:20;;;;;;;5.03;0.20;;;10.00;99.90;;;;;;4991556;28;20382;-50
2024/04/02 11:00:45;;;;;;;6.00;0.28;;;10.00;99.90;;;;;;4984998;28;20351;-46
2024/04/02 11:03:12;;;;;;;3.38;0.22;;;10.00;99.90;;;;;;4986487;28;20030;-50
2024/04/02 11:05:37;;;;;;;3.97;0.20;;;9.90;99.90;;;;;;4985597;28;20030;-48
2024/04/02 11:08:03;;;;;;;3.80;0.20;;;9.90;99.90;;;;;;4982132;28;20061;-50
2024/04/02 11:10:29;;;;;;;2.20;0.75;;;9.90;99.90;;;;;;4992897;28;20337;-47
2024/04/02 11:12:54;;;;;;;3.58;0.20;;;9.90;99.90;;;;;;4992490;28;20042;-46
2024/04/02 11:15:21;;;;;;;4.28;0.20;;;9.90;99.90;;;;;;4988352;28;20026;-49
2024/04/02 11:17:47;;;;;;;3.20;0.60;;;9.80;99.90;;;;;;4983865;28;20129;-49
2024/04/02 11:20:14;;;;;;;1.83;0.20;;;9.80;99.90;;;;;;4991194;28;20065;-49
2024/04/02 11:25:24;;;;;;;3.13;0.10;;;9.80;99.90;;;;;;4988682;28;20105;-50
2024/04/02 11:27:50;;;;;;;3.05;0.45;;;9.70;99.90;;;;;;4981736;28;20026;-51
2024/04/02 11:30:22;;;;;;;5.03;0.45;;;9.70;99.90;;;;;;4984514;28;20037;-49
2024/04/02 11:32:47;;;;;;;1.50;0.10;;;9.80;99.90;;;;;;4989801;28;20127;-48
2024/04/02 11:35:17;;;;;;;1.58;0.10;;;9.80;99.90;;;;;;5005348;28;20049;-50
2024/04/02 11:37:43;;;;;;;3.13;0.20;;;9.80;99.90;;;;;;5005035;28;20010;-52
2024/04/02 11:40:15;;;;;;;4.88;0.20;;;9.80;99.90;;;;;;4998621;28;20034;-50
2024/04/02 11:42:42;;;;;;;4.97;0.20;;;9.80;99.90;;;;;;4999767;28;20101;-50
2024/04/02 11:45:08;;;;;;;2.00;0.20;;;9.80;99.90;;;;;;4986622;28;20122;-52
2024/04/02 11:47:34;;;;;;;2.97;0.20;;;9.80;99.90;;;;;;4986167;28;20157;-50
2024/04/02 11:50:01;;;;;;;7.03;0.28;;;9.80;99.90;;;;;;4982350;28;20034;-45
2024/04/02 11:52:26;;;;;;;2.90;0.65;;;9.90;99.90;;;;;;4990791;28;20393;-49
2024/04/02 11:54:52;;;;;;;2.85;0.30;;;9.90;99.90;;;;;;4987041;28;20030;-50
2024/04/02 12:00:13;;;;;;;4.60;0.40;;;9.90;99.90;;;;;;4984729;28;20060;-47
2024/04/02 12:02:43;;;;;;;6.35;0.40;;;10.00;99.90;;;;;;4985102;28;20073;-51
2024/04/02 12:05:09;;;;;;;5.50;0.32;;;10.00;99.90;;;;;;4991938;28;20015;-47
2024/04/02 12:07:35;;;;;;;3.55;0.30;;;10.20;99.90;;;;;;4987305;28;20018;-47
2024/04/02 12:10:04;;;;;;;5.78;0.40;;;10.20;99.90;;;;;;4983730;28;20030;-48
2024/04/02 12:12:30;;;;;;;5.97;0.38;;;10.20;99.90;;;;;;4980614;28;20047;-48
2024/04/02 12:14:56;;;;;;;3.60;0.50;;;10.20;99.90;;;;;;4983670;28;20054;-47
2024/04/02 12:17:25;;;;;;;4.97;0.40;;;10.20;99.90;;;;;;4986447;28;20646;-48
2024/04/02 12:19:52;;;;;;;4.88;0.47;;;10.20;99.90;;;;;;4991029;28;20494;-52
2024/04/02 12:22:19;;;;;;;5.68;0.55;;;10.20;99.90;;;;;;4983953;28;20027;-52
2024/04/02 12:24:44;;;;;;;7.40;0.40;;;10.20;99.90;;;;;;4984319;28;20019;-47
2024/04/02 12:27:10;;;;;;;11.43;0.82;;;10.20;99.90;;;;;;4988551;28;20049;-50
2024/04/02 12:29:39;;;;;;;5.00;0.40;;;10.20;99.90;;;;;;4978816;28;20492;-51
2024/04/02 12:32:05;;;;;;;5.68;0.47;;;10.20;99.90;;;;;;4983583;28;20595;-50
2024/04/02 12:34:31;;;;;;;10.48;1.10;;;10.30;99.90;;;;;;4985376;28;20038;-51
2024/04/02 12:36:59;;;;;;;3.60;0.55;;;10.30;99.90;;;;;;4987269;28;20027;-50
2024/04/02 12:39:25;;;;;;;8.02;1.05;;;10.30;99.90;;;;;;4983863;28;20042;-52
2024/04/02 12:41:50;;;;;;;4.40;0.60;;;10.30;99.90;;;;;;4985244;28;20591;-49
2024/04/02 12:44:16;;;;;;;5.72;0.35;;;10.30;99.90;;;;;;4985577;28;21024;-50
2024/04/02 12:46:42;;;;;;;4.20;0.43;;;10.40;99.90;;;;;;4988065;28;20041;-51
2024/04/02 12:49:09;;;;;;;5.82;0.40;;;10.40;99.90;;;;;;4986727;28;20026;-50
2024/04/02 12:51:36;;;;;;;4.00;0.50;;;10.40;99.90;;;;;;4990732;28;20034;-50
2024/04/02 12:54:02;;;;;;;8.43;1.17;;;10.50;99.90;;;;;;4986556;28;20129;-53